Time;durP1;ratioP1;P1;durP2;ratioP2;P2;SDS_P1;SDS_P2;PMS_P1;PMS_P2;Temp;Humidity;BMP_temperature;BMP_pressure;BME280_temperature;BME280_humidity;BME280_pressure;Samples;Min_cycle;Max_cycle;Signal;HPM_P1;HPM_P2
2022/11/13 00:01:26;;;;;;;15.30;10.95;;;;;;;9.04;100.00;102002.72;5031621;28;20045;-71
2022/11/13 00:03:52;;;;;;;15.68;11.18;;;;;;;9.04;100.00;102018.16;5031169;28;20035;-70
2022/11/13 00:06:18;;;;;;;14.80;10.93;;;;;;;9.64;100.00;102116.69;5031647;28;20121;-71
2022/11/13 00:08:44;;;;;;;12.90;10.10;;;;;;;9.66;100.00;102109.94;5031562;28;20080;-70
2022/11/13 00:11:17;;;;;;;13.82;10.65;;;;;;;9.74;100.00;102108.75;5031249;28;20025;-70
2022/11/13 00:13:43;;;;;;;14.60;10.85;;;;;;;9.80;100.00;102101.44;5031114;28;20108;-71
2022/11/13 00:16:11;;;;;;;14.20;9.80;;;;;;;9.85;100.00;102109.47;5031091;28;20487;-74
2022/11/13 00:18:37;;;;;;;12.10;10.70;;;;;;;9.72;100.00;102094.88;5031553;28;20040;-72
2022/11/13 00:21:08;;;;;;;12.73;9.57;;;;;;;9.77;100.00;102098.66;5031290;28;20091;-70
2022/11/13 00:23:35;;;;;;;14.95;10.80;;;;;;;9.80;100.00;102103.13;5031397;28;20030;-70
2022/11/13 00:26:10;;;;;;;13.88;10.52;;;;;;;9.82;100.00;102102.44;5030971;28;20033;-70
2022/11/13 00:28:36;;;;;;;16.15;11.57;;;;;;;9.85;100.00;102119.81;5030931;28;20040;-73
2022/11/13 00:31:03;;;;;;;14.80;10.85;;;;;;;9.78;100.00;102100.47;5031144;28;20029;-70
2022/11/13 00:36:50;;;;;;;12.80;9.98;;;;;;;9.54;100.00;102097.13;5188381;22;20441;-70
2022/11/13 00:39:16;;;;;;;13.00;9.68;;;;;;;9.29;100.00;102108.34;5074610;28;20020;-70
2022/11/13 00:41:41;;;;;;;14.45;9.40;;;;;;;8.87;100.00;102065.94;5071383;28;20036;-70
2022/11/13 00:44:07;;;;;;;12.57;9.90;;;;;;;9.00;100.00;102103.75;5071048;28;20033;-70
2022/11/13 00:46:32;;;;;;;12.05;9.57;;;;;;;9.02;100.00;102112.47;5071136;28;20402;-70
2022/11/13 00:49:01;;;;;;;13.65;10.45;;;;;;;9.05;100.00;102102.41;5071037;28;20033;-73
2022/11/13 00:51:26;;;;;;;15.32;10.70;;;;;;;9.13;100.00;102098.66;5070844;28;20058;-70
2022/11/13 00:53:52;;;;;;;13.00;10.25;;;;;;;8.98;100.00;102077.00;5070826;28;20486;-70
2022/11/13 00:56:17;;;;;;;14.75;10.75;;;;;;;9.14;100.00;102108.16;5070175;28;20081;-70
2022/11/13 00:58:43;;;;;;;16.05;10.88;;;;;;;9.18;100.00;102106.72;5071024;28;20025;-71
2022/11/13 01:01:11;;;;;;;14.13;10.23;;;;;;;8.77;100.00;102024.88;5070719;28;20035;-70
2022/11/13 01:03:37;;;;;;;15.80;11.23;;;;;;;9.16;100.00;102114.34;5071048;28;20036;-71
2022/11/13 01:06:29;;;;;;;14.38;9.82;;;;;;;9.15;100.00;102102.22;5070951;28;20032;-70
2022/11/13 01:08:56;;;;;;;12.73;10.02;;;;;;;9.12;100.00;102093.41;4989187;28;20085;-71
2022/11/13 01:11:24;;;;;;;13.38;10.55;;;;;;;9.17;100.00;102098.09;4989015;28;20065;-71
2022/11/13 01:13:50;;;;;;;14.07;10.60;;;;;;;9.17;100.00;102102.34;4988670;28;20042;-71
2022/11/13 01:16:18;;;;;;;13.43;9.50;;;;;;;9.18;100.00;102097.31;4989102;28;20039;-70
2022/11/13 01:18:44;;;;;;;17.88;10.23;;;;;;;8.26;100.00;101965.56;4988649;28;20038;-70
2022/11/13 01:21:19;;;;;;;14.13;10.45;;;;;;;8.89;100.00;102096.16;4989079;28;20421;-70
2022/11/13 01:23:46;;;;;;;15.13;10.82;;;;;;;9.00;100.00;102093.47;4988946;28;20030;-70
2022/11/13 01:26:19;;;;;;;16.45;10.32;;;;;;;9.10;100.00;102098.44;4988770;28;20104;-70
2022/11/13 01:28:45;;;;;;;14.05;11.05;;;;;;;9.15;100.00;102094.50;4989233;28;20447;-71
2022/11/13 01:31:15;;;;;;;15.35;11.10;;;;;;;9.18;100.00;102097.31;4988870;28;20536;-71
2022/11/13 01:33:41;;;;;;;14.55;10.15;;;;;;;9.21;100.00;102094.03;4988671;28;20085;-71
2022/11/13 01:36:12;;;;;;;14.05;10.55;;;;;;;9.04;100.00;102069.69;4988571;28;20545;-70
2022/11/13 01:38:37;;;;;;;14.95;10.13;;;;;;;9.18;100.00;102089.59;4987084;28;20050;-71
2022/11/13 01:41:05;;;;;;;14.98;10.10;;;;;;;9.19;100.00;102104.22;4988529;28;20146;-71
2022/11/13 01:43:32;;;;;;;12.10;9.43;;;;;;;9.28;100.00;102105.66;4988578;28;20035;-71
2022/11/13 01:45:57;;;;;;;16.50;10.98;;;;;;;9.31;100.00;102093.88;5038244;28;20068;-71
2022/11/13 01:48:43;;;;;;;12.23;9.45;;;;;;;9.37;100.00;102107.19;5070228;28;20063;-70
2022/11/13 01:51:20;;;;;;;14.75;10.82;;;;;;;9.46;100.00;102104.34;5069313;28;20033;-71
2022/11/13 01:53:47;;;;;;;14.68;10.45;;;;;;;9.46;100.00;102093.13;5069879;28;20090;-71
2022/11/13 01:56:13;;;;;;;14.50;10.95;;;;;;;9.46;100.00;102081.13;5065933;28;20059;-71
2022/11/13 01:58:42;;;;;;;13.75;10.57;;;;;;;8.88;100.00;101986.22;5050483;28;20037;-70
2022/11/13 02:01:08;;;;;;;13.15;10.15;;;;;;;9.45;100.00;102084.50;5048960;28;20090;-71
2022/11/13 02:03:33;;;;;;;12.70;10.45;;;;;;;9.18;100.00;102063.81;5049989;28;20029;-71
2022/11/13 02:05:59;;;;;;;14.30;10.30;;;;;;;9.38;100.00;102080.63;5049967;28;20391;-70
2022/11/13 02:08:24;;;;;;;13.27;9.85;;;;;;;8.66;100.00;101957.19;5052297;28;20021;-70
2022/11/13 02:10:50;;;;;;;13.18;10.05;;;;;;;8.81;100.00;101988.25;5058795;28;20422;-71
2022/11/13 02:13:15;;;;;;;15.57;10.70;;;;;;;9.32;100.00;102092.19;5073268;28;20047;-70
2022/11/13 02:15:42;;;;;;;13.70;9.75;;;;;;;9.18;100.00;102096.41;5073702;28;20028;-70
2022/11/13 02:18:10;;;;;;;18.10;10.63;;;;;;;8.88;100.00;102086.66;5073355;28;20028;-70
2022/11/13 02:20:51;;;;;;;14.73;10.68;;;;;;;8.27;100.00;101977.66;5073401;28;20103;-70
2022/11/13 02:23:27;;;;;;;13.73;10.57;;;;;;;9.01;100.00;102087.50;5072197;28;20033;-70
2022/11/13 02:25:53;;;;;;;15.65;11.65;;;;;;;8.88;100.00;102078.94;5073464;28;20090;-71
2022/11/13 02:28:19;;;;;;;20.30;12.75;;;;;;;9.02;100.00;102091.88;5072921;28;20028;-70
2022/11/13 02:30:44;;;;;;;15.65;11.27;;;;;;;9.10;100.00;102095.88;5073351;28;20051;-70
2022/11/13 02:33:22;;;;;;;15.98;11.60;;;;;;;9.11;100.00;102089.94;5073105;28;20024;-71
2022/11/13 02:35:48;;;;;;;15.07;11.43;;;;;;;8.93;100.00;102074.09;5073025;28;20060;-70
2022/11/13 02:38:13;;;;;;;15.15;10.85;;;;;;;9.09;100.00;102096.66;5072923;28;20050;-70
2022/11/13 02:40:39;;;;;;;14.73;10.55;;;;;;;9.11;100.00;102092.50;5072804;28;20025;-71
2022/11/13 02:43:04;;;;;;;15.50;11.65;;;;;;;9.18;100.00;102089.59;5072779;28;20039;-70
2022/11/13 02:45:30;;;;;;;16.02;11.35;;;;;;;9.26;100.00;102096.91;5072745;28;20089;-71
2022/11/13 02:47:58;;;;;;;15.55;11.20;;;;;;;8.46;100.00;101943.88;5072968;28;20039;-71
2022/11/13 02:50:23;;;;;;;16.95;11.95;;;;;;;9.33;100.00;102092.31;5071415;28;20062;-71
2022/11/13 02:52:49;;;;;;;14.50;11.85;;;;;;;9.35;100.00;102090.72;5072853;28;20394;-70
2022/11/13 02:55:14;;;;;;;16.52;12.55;;;;;;;8.92;100.00;101996.72;5072456;28;20043;-71
2022/11/13 02:57:40;;;;;;;17.67;12.40;;;;;;;9.47;100.00;102090.66;5072660;28;20036;-71
2022/11/13 03:00:06;;;;;;;15.35;12.05;;;;;;;9.51;100.00;102087.50;5072522;28;20021;-70
2022/11/13 03:02:31;;;;;;;16.35;11.88;;;;;;;9.50;100.00;102085.69;5072206;28;20031;-71
2022/11/13 03:04:57;;;;;;;16.55;12.20;;;;;;;9.07;100.00;102029.56;5071211;28;20024;-70
2022/11/13 03:07:22;;;;;;;15.75;11.85;;;;;;;9.32;100.00;102077.63;5053385;28;20040;-70
2022/11/13 03:09:50;;;;;;;15.63;11.52;;;;;;;9.44;100.00;102087.88;5072234;28;20054;-71
2022/11/13 03:12:16;;;;;;;14.45;11.57;;;;;;;8.88;100.00;101995.63;5072317;28;20032;-70
2022/11/13 03:14:41;;;;;;;14.77;11.82;;;;;;;8.92;100.00;101992.44;5072240;28;20017;-70
2022/11/13 03:17:07;;;;;;;17.27;12.75;;;;;;;9.48;100.00;102082.16;5072227;28;20024;-71
2022/11/13 03:19:32;;;;;;;16.40;12.70;;;;;;;9.28;100.00;102051.53;5069973;28;20051;-72
2022/11/13 03:21:58;;;;;;;18.00;12.75;;;;;;;9.39;100.00;102068.63;5069900;28;20025;-72
2022/11/13 03:24:23;;;;;;;17.52;12.80;;;;;;;9.65;100.00;102092.69;5070452;28;20102;-71
2022/11/13 03:26:49;;;;;;;16.58;12.93;;;;;;;9.67;100.00;102092.00;5070873;28;20032;-73
2022/11/13 03:29:14;;;;;;;15.68;11.95;;;;;;;9.68;100.00;102087.72;5072193;28;20024;-70
2022/11/13 03:31:40;;;;;;;18.40;12.60;;;;;;;9.52;100.00;102053.19;5072244;28;20040;-70
2022/11/13 03:34:06;;;;;;;17.20;13.07;;;;;;;9.76;100.00;102081.41;5071744;28;20729;-70
2022/11/13 03:36:31;;;;;;;18.25;13.13;;;;;;;9.82;100.00;102086.97;5071491;28;20445;-71
2022/11/13 03:38:57;;;;;;;16.83;12.57;;;;;;;9.17;100.00;101966.69;5071935;28;20054;-70
2022/11/13 03:41:23;;;;;;;17.98;11.98;;;;;;;9.88;100.00;102092.53;5071305;28;20040;-72
2022/11/13 03:43:48;;;;;;;15.00;11.68;;;;;;;9.27;100.00;101982.75;5071683;28;20056;-70
2022/11/13 03:46:14;;;;;;;18.60;14.32;;;;;;;9.77;100.00;102071.97;5071861;28;20028;-69
2022/11/13 03:48:39;;;;;;;19.70;13.23;;;;;;;9.83;100.00;102085.25;5070347;28;20031;-70
2022/11/13 03:51:05;;;;;;;18.48;14.07;;;;;;;9.86;100.00;102090.63;5071507;28;20551;-71
2022/11/13 03:53:30;;;;;;;17.95;13.95;;;;;;;9.71;100.00;102047.56;5071607;28;20032;-70
2022/11/13 03:55:56;;;;;;;18.00;14.30;;;;;;;9.87;100.00;102077.84;5048744;28;20041;-70
2022/11/13 03:58:21;;;;;;;18.73;14.85;;;;;;;9.83;100.00;102077.53;5048876;28;20832;-71
2022/11/13 04:00:48;;;;;;;17.55;14.30;;;;;;;9.80;100.00;102067.03;5049053;28;20053;-72
2022/11/13 04:03:13;;;;;;;18.00;14.32;;;;;;;9.50;100.00;102022.94;5048820;28;20091;-71
2022/11/13 04:05:41;;;;;;;18.17;14.23;;;;;;;9.67;100.00;102049.81;5048858;28;20469;-71
2022/11/13 04:08:07;;;;;;;19.80;15.07;;;;;;;9.71;100.00;102072.47;5048701;28;20025;-73
2022/11/13 04:10:32;;;;;;;18.70;14.82;;;;;;;9.67;100.00;102076.53;5048733;28;20852;-70
2022/11/13 04:12:58;;;;;;;18.35;14.88;;;;;;;9.63;100.00;102061.66;5048621;28;20041;-71
2022/11/13 04:15:24;;;;;;;20.52;15.02;;;;;;;9.54;100.00;102046.47;5048798;28;20045;-72
2022/11/13 04:17:49;;;;;;;19.52;15.65;;;;;;;9.32;100.00;102000.31;5048507;28;20064;-71
2022/11/13 04:20:15;;;;;;;18.00;14.07;;;;;;;9.54;100.00;102076.50;5048696;28;20040;-71
2022/11/13 04:22:40;;;;;;;18.30;15.05;;;;;;;9.49;100.00;102075.28;5048519;28;20037;-73
2022/11/13 04:25:06;;;;;;;22.05;15.95;;;;;;;9.50;100.00;102083.13;5028421;28;20571;-70
2022/11/13 04:27:32;;;;;;;22.55;14.70;;;;;;;9.44;100.00;102051.78;5043200;28;20033;-71
2022/11/13 04:29:57;;;;;;;19.42;15.52;;;;;;;8.84;100.00;101950.72;5048292;28;20071;-72
2022/11/13 04:32:23;;;;;;;22.27;15.52;;;;;;;9.10;100.00;101990.25;5048072;28;20072;-71
2022/11/13 04:34:48;;;;;;;18.63;14.75;;;;;;;9.66;100.00;102071.28;5048079;28;20055;-71
2022/11/13 04:37:14;;;;;;;21.15;15.75;;;;;;;9.69;100.00;102063.72;5048381;28;20561;-71
2022/11/13 04:39:39;;;;;;;21.40;16.23;;;;;;;8.96;100.00;101948.09;5048275;28;20084;-71
2022/11/13 04:44:48;;;;;;;27.90;20.63;;;;;;;9.68;100.00;102080.91;5048506;28;20122;-71
2022/11/13 04:47:14;;;;;;;21.90;17.67;;;;;;;9.67;100.00;102102.31;5047910;28;20473;-71
2022/11/13 04:49:39;;;;;;;21.77;16.95;;;;;;;9.50;100.00;102059.91;5048229;28;20503;-70
2022/11/13 04:52:05;;;;;;;24.35;18.92;;;;;;;9.63;100.00;102092.59;5048065;28;20446;-71
2022/11/13 04:54:30;;;;;;;23.85;18.88;;;;;;;9.58;100.00;102075.00;5048018;28;20037;-71
2022/11/13 04:56:56;;;;;;;24.67;19.02;;;;;;;9.52;100.00;102070.31;5047960;28;20041;-71
2022/11/13 04:59:21;;;;;;;33.15;20.05;;;;;;;9.37;100.00;102055.63;5048060;28;20033;-71
2022/11/13 05:01:47;;;;;;;24.05;17.55;;;;;;;9.55;100.00;102075.69;5035747;28;20040;-71
2022/11/13 05:04:14;;;;;;;25.02;17.58;;;;;;;9.62;100.00;102092.47;5086118;28;20564;-71
2022/11/13 05:06:40;;;;;;;32.10;18.60;;;;;;;9.55;100.00;102071.44;5071069;28;20111;-71
2022/11/13 05:09:05;;;;;;;26.52;17.95;;;;;;;9.75;100.00;102089.91;5070546;28;20462;-71
2022/11/13 05:11:30;;;;;;;22.70;17.15;;;;;;;9.09;100.00;101965.25;5070305;28;20025;-71
2022/11/13 05:13:56;;;;;;;21.38;15.88;;;;;;;9.72;100.00;102102.63;5070185;28;20032;-71
2022/11/13 05:16:21;;;;;;;23.73;16.50;;;;;;;9.60;100.00;102066.59;5070339;28;20040;-71
2022/11/13 05:18:47;;;;;;;22.67;16.80;;;;;;;9.79;100.00;102088.44;5070608;28;20040;-71
2022/11/13 05:21:12;;;;;;;22.98;16.45;;;;;;;9.79;100.00;102088.44;5070306;28;20447;-72
2022/11/13 05:23:38;;;;;;;20.58;15.98;;;;;;;9.81;100.00;102089.44;5070134;28;20589;-71
2022/11/13 05:26:09;;;;;;;22.00;16.83;;;;;;;9.86;100.00;102093.22;5070340;28;20033;-70
2022/11/13 05:28:36;;;;;;;30.58;17.98;;;;;;;9.49;100.00;102029.75;5070526;28;20155;-71
2022/11/13 05:31:07;;;;;;;25.13;17.30;;;;;;;9.86;100.00;102091.53;5070231;28;20379;-71
2022/11/13 05:33:33;;;;;;;25.02;17.65;;;;;;;9.90;100.00;102094.31;5070186;28;20028;-73
2022/11/13 05:36:11;;;;;;;24.13;17.42;;;;;;;9.87;100.00;102093.31;5069963;28;20059;-71
2022/11/13 05:38:37;;;;;;;23.95;17.98;;;;;;;9.94;100.00;102106.63;5070082;28;20406;-71
2022/11/13 05:41:17;;;;;;;22.90;17.27;;;;;;;9.35;100.00;101994.47;5070294;28;20025;-71
2022/11/13 05:43:43;;;;;;;23.42;17.02;;;;;;;10.06;100.00;102115.16;5073205;28;20399;-70
2022/11/13 05:46:30;;;;;;;20.98;15.95;;;;;;;10.12;100.00;102110.41;5064844;28;20044;-73
2022/11/13 05:48:59;;;;;;;18.58;14.27;;;;;;;10.12;100.00;102107.81;5053795;28;20608;-71
2022/11/13 05:51:30;;;;;;;19.67;15.13;;;;;;;10.12;100.00;102109.50;5053805;28;20384;-71
2022/11/13 05:53:57;;;;;;;18.48;13.80;;;;;;;9.98;100.00;102103.44;5053461;28;20659;-71
2022/11/13 05:56:28;;;;;;;18.77;14.60;;;;;;;9.93;100.00;102109.97;5034519;28;20041;-71
2022/11/13 05:58:55;;;;;;;18.63;14.75;;;;;;;9.94;100.00;102122.09;5051540;28;20441;-72
2022/11/13 06:01:28;;;;;;;19.55;14.10;;;;;;;9.92;100.00;102134.00;5051090;28;20047;-71
2022/11/13 06:03:55;;;;;;;18.10;14.23;;;;;;;9.92;100.00;102121.09;5051282;28;20546;-71
2022/11/13 06:06:21;;;;;;;17.58;13.93;;;;;;;9.86;100.00;102140.53;5050920;28;20037;-72
2022/11/13 06:08:48;;;;;;;17.25;14.13;;;;;;;9.77;100.00;102132.19;5050976;28;20041;-71
2022/11/13 06:11:17;;;;;;;17.45;14.35;;;;;;;9.80;100.00;102126.34;5050875;28;20087;-72
2022/11/13 06:13:43;;;;;;;20.15;15.32;;;;;;;9.74;100.00;102128.50;5051007;28;20047;-71
2022/11/13 06:16:11;;;;;;;18.23;14.57;;;;;;;9.71;100.00;102119.78;5051088;28;20045;-71
2022/11/13 06:18:38;;;;;;;20.88;15.32;;;;;;;9.72;100.00;102125.84;5050268;28;20037;-71
2022/11/13 06:21:07;;;;;;;21.85;17.45;;;;;;;9.65;100.00;102123.63;5050176;28;20059;-71
2022/11/13 06:23:35;;;;;;;28.07;21.57;;;;;;;9.32;100.00;102072.47;5047526;28;20057;-71
2022/11/13 06:26:07;;;;;;;28.98;21.27;;;;;;;9.69;100.00;102131.69;5050754;28;20033;-71
2022/11/13 06:28:34;;;;;;;24.80;19.08;;;;;;;9.67;100.00;102132.34;5033983;28;20044;-71
2022/11/13 06:31:05;;;;;;;22.92;18.33;;;;;;;9.75;100.00;102130.31;5033354;28;20091;-71
2022/11/13 06:33:31;;;;;;;22.85;18.15;;;;;;;9.84;100.00;102138.66;5051454;28;20047;-72
2022/11/13 06:35:56;;;;;;;25.23;19.60;;;;;;;9.83;100.00;102119.72;5053005;28;20049;-71
2022/11/13 06:38:22;;;;;;;22.77;18.25;;;;;;;9.85;100.00;102131.00;5052874;28;20116;-71
2022/11/13 06:40:47;;;;;;;24.17;18.88;;;;;;;9.79;100.00;102112.53;5053246;28;20609;-70
2022/11/13 06:43:13;;;;;;;24.90;18.92;;;;;;;9.84;100.00;102108.59;5052783;28;20384;-74
2022/11/13 06:45:38;;;;;;;23.02;17.63;;;;;;;9.94;100.00;102132.41;5052928;28;20554;-70
2022/11/13 06:48:04;;;;;;;23.27;17.70;;;;;;;9.99;100.00;102120.72;5052746;28;20025;-71
2022/11/13 06:50:29;;;;;;;19.65;16.70;;;;;;;10.06;100.00;102127.19;5052774;28;20024;-71
2022/11/13 06:52:55;;;;;;;20.40;14.93;;;;;;;10.19;100.00;102127.16;5052769;28;20033;-71
2022/11/13 06:55:20;;;;;;;19.90;15.43;;;;;;;10.26;100.00;102134.53;5051568;28;20115;-71
2022/11/13 06:57:45;;;;;;;18.10;14.50;;;;;;;10.29;100.00;102114.09;5052794;28;20040;-71
2022/11/13 07:00:11;;;;;;;17.77;14.65;;;;;;;10.39;100.00;102131.06;5052632;28;20033;-70
2022/11/13 07:02:37;;;;;;;17.75;14.60;;;;;;;10.43;100.00;102114.09;5052691;28;20028;-69
2022/11/13 07:05:03;;;;;;;20.30;15.52;;;;;;;10.25;100.00;102090.56;5072380;28;20505;-70
2022/11/13 07:07:28;;;;;;;19.45;15.30;;;;;;;10.50;100.00;102132.69;5072324;28;20037;-70
2022/11/13 07:09:53;;;;;;;19.67;14.57;;;;;;;10.38;100.00;102100.91;5072368;28;20043;-70
2022/11/13 07:12:19;;;;;;;17.20;13.57;;;;;;;10.47;100.00;102123.84;5072183;28;20104;-70
2022/11/13 07:14:44;;;;;;;20.42;15.48;;;;;;;10.46;100.00;102119.47;5072266;28;20037;-70
2022/11/13 07:17:10;;;;;;;20.08;15.02;;;;;;;10.65;100.00;102131.84;5071961;28;20029;-70
2022/11/13 07:19:35;;;;;;;20.25;15.05;;;;;;;10.65;100.00;102127.59;5072508;28;20040;-71
2022/11/13 07:22:00;;;;;;;19.50;15.60;;;;;;;10.67;100.00;102128.56;5072092;28;20028;-71
2022/11/13 07:24:26;;;;;;;20.00;15.25;;;;;;;10.69;100.00;102123.50;5072167;28;20021;-70
2022/11/13 07:26:54;;;;;;;20.25;14.88;;;;;;;10.65;100.00;102135.34;5072165;28;20108;-72
2022/11/13 07:29:20;;;;;;;25.77;15.77;;;;;;;10.65;100.00;102116.34;5071340;28;20033;-72
2022/11/13 07:31:45;;;;;;;18.48;14.52;;;;;;;10.71;100.00;102121.91;5071671;28;20036;-77
2022/11/13 07:34:10;;;;;;;19.83;15.20;;;;;;;10.76;100.00;102130.84;5071935;28;20025;-71
2022/11/13 07:36:36;;;;;;;19.55;15.65;;;;;;;10.86;100.00;102126.25;5071975;28;20040;-70
2022/11/13 07:39:01;;;;;;;20.08;15.05;;;;;;;10.67;100.00;102073.44;5071833;28;20024;-72
2022/11/13 07:41:27;;;;;;;21.95;15.27;;;;;;;10.25;100.00;101995.06;5071167;28;20037;-71
2022/11/13 07:43:52;;;;;;;20.05;15.68;;;;;;;10.92;100.00;102121.47;5052306;28;20037;-71
2022/11/13 07:46:18;;;;;;;20.60;14.63;;;;;;;11.01;100.00;102111.69;5063949;28;20507;-72
2022/11/13 07:48:43;;;;;;;19.00;14.82;;;;;;;10.39;100.00;102014.00;5055702;28;20024;-73
2022/11/13 07:51:09;;;;;;;21.83;14.65;;;;;;;11.08;100.00;102115.53;5065192;28;20115;-72
2022/11/13 07:53:34;;;;;;;23.55;15.15;;;;;;;10.42;100.00;101976.38;5064916;28;20035;-73
2022/11/13 07:56:01;;;;;;;22.40;13.20;;;;;;;11.22;100.00;102121.59;5061299;28;20414;-76
2022/11/13 07:58:27;;;;;;;28.27;15.30;;;;;;;11.19;100.00;102091.28;5059181;28;20029;-73
2022/11/13 08:00:52;;;;;;;24.10;14.18;;;;;;;11.38;100.00;102103.59;5062685;28;20024;-71
2022/11/13 08:03:18;;;;;;;25.10;14.68;;;;;;;11.48;100.00;102097.28;5067385;28;20066;-71
2022/11/13 08:05:43;;;;;;;22.95;13.88;;;;;;;11.40;100.00;102070.97;5055678;28;20032;-71
2022/11/13 08:08:13;;;;;;;25.45;14.73;;;;;;;11.76;100.00;102101.50;5061525;28;20528;-71
2022/11/13 08:10:39;;;;;;;23.70;14.43;;;;;;;11.87;100.00;102089.19;5060207;28;20028;-70
2022/11/13 08:13:06;;;;;;;22.83;13.52;;;;;;;11.46;100.00;102003.19;5071639;28;20036;-72
2022/11/13 08:15:33;;;;;;;21.90;13.00;;;;;;;12.08;100.00;102095.59;5059869;28;20100;-72
2022/11/13 08:18:00;;;;;;;23.95;13.10;;;;;;;11.93;100.00;102046.41;5060270;28;20031;-72
2022/11/13 08:20:26;;;;;;;22.42;13.68;;;;;;;11.59;100.00;101972.06;5061165;28;20024;-71
2022/11/13 08:22:55;;;;;;;22.02;12.65;;;;;;;11.86;100.00;101999.41;5061708;28;20024;-71
2022/11/13 08:25:20;;;;;;;27.98;13.40;;;;;;;12.43;100.00;102081.16;5060127;28;20025;-71
2022/11/13 08:27:46;;;;;;;20.90;11.65;;;;;;;12.53;100.00;102084.25;5060888;28;20017;-73
2022/11/13 08:30:12;;;;;;;16.25;10.68;;;;;;;12.01;100.00;101974.41;5061374;28;20037;-73
2022/11/13 08:32:38;;;;;;;13.30;9.82;;;;;;;12.67;100.00;102085.91;5074815;28;20044;-71
2022/11/13 08:35:03;;;;;;;13.88;8.85;;;;;;;12.78;100.00;102077.03;5060748;28;20131;-71
2022/11/13 08:37:29;;;;;;;15.55;9.63;;;;;;;12.79;100.00;102068.41;5060000;28;20025;-70
2022/11/13 08:39:54;;;;;;;16.30;10.13;;;;;;;12.96;100.00;102081.41;5059493;28;20032;-72
2022/11/13 08:42:19;;;;;;;14.40;9.43;;;;;;;13.10;100.00;102090.78;5061178;28;20024;-71
2022/11/13 08:44:45;;;;;;;19.67;8.15;;;;;;;12.49;100.00;101974.41;5060257;28;20438;-72
2022/11/13 08:47:11;;;;;;;17.10;9.20;;;;;;;13.05;100.00;102081.88;5059663;28;20049;-73
2022/11/13 08:49:37;;;;;;;30.63;10.70;;;;;;;13.08;100.00;102071.69;5061594;28;20489;-72
2022/11/13 08:52:03;;;;;;;29.77;12.00;;;;;;;13.11;100.00;102071.84;5059952;28;20020;-71
2022/11/13 08:54:28;;;;;;;21.92;11.15;;;;;;;13.25;100.00;102072.53;5060098;28;20462;-72
2022/11/13 08:56:53;;;;;;;13.23;8.63;;;;;;;13.30;100.00;102083.16;5061141;28;20609;-71
2022/11/13 08:59:19;;;;;;;12.73;7.65;;;;;;;12.60;100.00;101964.63;5059141;28;20021;-72
2022/11/13 09:01:44;;;;;;;11.50;7.70;;;;;;;13.37;100.00;102061.97;5060427;28;20569;-72
2022/11/13 09:04:10;;;;;;;11.15;7.97;;;;;;;13.48;100.00;102062.47;5059506;28;20035;-72
2022/11/13 09:06:35;;;;;;;12.88;8.30;;;;;;;13.57;100.00;102067.25;5059326;28;20025;-71
2022/11/13 09:09:01;;;;;;;14.90;8.93;;;;;;;13.72;100.00;102070.63;5062712;28;20428;-73
2022/11/13 09:11:26;;;;;;;11.73;8.23;;;;;;;13.75;100.00;102057.78;5062351;28;20026;-72
2022/11/13 09:13:53;;;;;;;16.88;8.60;;;;;;;13.71;100.00;102050.66;5060352;28;20082;-73
2022/11/13 09:16:19;;;;;;;10.90;7.18;;;;;;;13.74;100.00;102070.69;5060650;28;20087;-72
2022/11/13 09:18:48;;;;;;;12.77;8.00;;;;;;;13.87;100.00;102054.03;5058374;28;20017;-73
2022/11/13 09:21:34;;;;;;;11.43;8.10;;;;;;;13.83;100.00;102046.91;5065793;28;20494;-71
2022/11/13 09:23:59;;;;;;;14.80;8.45;;;;;;;13.89;100.00;102066.28;5067441;28;20059;-73
2022/11/13 09:26:24;;;;;;;17.52;8.88;;;;;;;13.83;100.00;102045.22;5067577;28;20032;-72
2022/11/13 09:28:50;;;;;;;33.53;11.55;;;;;;;14.01;100.00;102055.59;5067458;28;20462;-72
2022/11/13 09:31:15;;;;;;;18.13;9.38;;;;;;;12.98;100.00;101858.53;5067551;28;20548;-72
2022/11/13 09:33:41;;;;;;;15.63;9.15;;;;;;;14.20;100.00;102046.06;5067456;28;20131;-71
2022/11/13 09:36:11;;;;;;;23.02;8.43;;;;;;;14.43;100.00;102059.25;5067565;28;20049;-70
2022/11/13 09:38:36;;;;;;;13.57;8.20;;;;;;;14.55;100.00;102028.63;5042188;28;20151;-72
2022/11/13 09:41:22;;;;;;;15.30;8.00;;;;;;;14.78;100.00;102041.81;5062581;28;20560;-71
2022/11/13 09:43:52;;;;;;;13.70;6.75;;;;;;;14.86;100.00;102040.47;5062465;28;20151;-72
2022/11/13 09:46:23;;;;;;;15.73;7.53;;;;;;;14.85;100.00;102043.88;5063305;28;20044;-72
2022/11/13 09:48:57;;;;;;;24.23;8.68;;;;;;;14.95;100.00;102046.06;5060940;28;20036;-72
2022/11/13 09:51:36;;;;;;;21.27;8.45;;;;;;;15.07;99.79;102034.44;5065524;28;20052;-72
2022/11/13 09:54:06;;;;;;;18.02;7.75;;;;;;;15.02;97.09;102023.81;5067438;28;20131;-72
2022/11/13 09:56:59;;;;;;;24.75;10.05;;;;;;;15.12;100.00;102025.13;5066934;28;20033;-71
2022/11/13 09:59:41;;;;;;;28.95;9.07;;;;;;;15.21;98.44;102007.28;5063630;28;20468;-74
2022/11/13 10:02:06;;;;;;;20.42;8.80;;;;;;;15.28;97.85;102014.53;5068481;28;20033;-72
2022/11/13 10:04:38;;;;;;;21.77;8.63;;;;;;;14.77;98.13;101915.28;5065973;28;20028;-70
2022/11/13 10:07:17;;;;;;;16.27;7.28;;;;;;;15.25;96.92;101982.28;5059868;28;20037;-71
2022/11/13 10:10:15;;;;;;;17.17;8.30;;;;;;;15.33;96.95;101984.38;5060989;28;20092;-69
2022/11/13 10:12:42;;;;;;;23.63;8.73;;;;;;;15.35;95.72;101974.03;5068715;28;20528;-71
2022/11/13 10:15:09;;;;;;;19.15;8.02;;;;;;;15.37;95.15;101999.28;5067997;28;20431;-72
2022/11/13 10:17:59;;;;;;;16.85;7.75;;;;;;;15.44;93.97;102000.47;5069009;28;20071;-73
2022/11/13 10:20:49;;;;;;;17.70;8.05;;;;;;;15.53;94.86;101999.94;5068513;28;20056;-70
2022/11/13 10:23:23;;;;;;;16.38;8.15;;;;;;;15.46;94.10;101977.97;5068672;28;20498;-72
2022/11/13 10:25:51;;;;;;;13.10;7.60;;;;;;;15.60;93.98;101969.84;5069216;28;20463;-70
2022/11/13 10:28:19;;;;;;;19.75;8.18;;;;;;;15.84;91.73;101990.81;5069421;28;20028;-71
2022/11/13 10:30:46;;;;;;;9.95;6.95;;;;;;;15.84;94.23;101988.22;5072219;28;20468;-72
2022/11/13 10:33:16;;;;;;;13.65;7.18;;;;;;;15.89;93.82;101989.28;5072064;28;20045;-73
2022/11/13 10:36:03;;;;;;;17.58;8.25;;;;;;;15.88;95.77;101992.69;5071748;28;20044;-71
2022/11/13 10:38:57;;;;;;;17.75;8.88;;;;;;;15.39;95.11;101944.75;5071958;28;20043;-71
2022/11/13 10:41:22;;;;;;;11.00;7.57;;;;;;;15.56;94.07;101983.56;5072057;28;20032;-71
2022/11/13 10:43:52;;;;;;;10.82;7.40;;;;;;;15.26;95.58;101963.25;5072376;28;20020;-70
2022/11/13 10:46:21;;;;;;;13.68;7.85;;;;;;;15.19;94.61;101954.31;5071576;28;20032;-71
2022/11/13 10:48:46;;;;;;;20.08;9.65;;;;;;;14.56;96.67;101858.91;5071333;28;20040;-71
2022/11/13 10:51:30;;;;;;;12.32;7.35;;;;;;;14.70;95.16;101854.31;5070430;28;20025;-74
2022/11/13 10:53:58;;;;;;;11.95;6.72;;;;;;;15.01;93.73;101858.19;5069347;28;20111;-71
2022/11/13 10:56:35;;;;;;;11.00;8.13;;;;;;;15.70;96.00;101935.53;5071616;28;20021;-72
2022/11/13 10:59:14;;;;;;;10.02;7.20;;;;;;;15.92;92.85;101957.25;5070742;28;20547;-72
2022/11/13 11:01:41;;;;;;;11.63;7.63;;;;;;;16.03;93.07;101942.03;5071845;28;20013;-72
2022/11/13 11:04:22;;;;;;;10.38;7.50;;;;;;;15.60;92.15;101850.09;5071738;28;20386;-73
2022/11/13 11:09:45;;;;;;;8.63;7.57;;;;;;;15.67;94.39;101907.66;5184633;22;20059;-71
2022/11/13 11:12:22;;;;;;;10.02;7.85;;;;;;;15.43;96.49;101909.31;5070029;28;20508;-74
2022/11/13 11:14:51;;;;;;;11.80;8.60;;;;;;;15.53;97.17;101934.88;5067842;28;20028;-74
2022/11/13 11:17:18;;;;;;;9.25;7.30;;;;;;;15.35;96.85;101925.50;5068278;28;20035;-70
2022/11/13 11:19:51;;;;;;;10.10;7.30;;;;;;;14.92;95.65;101879.50;5063830;28;20037;-71
2022/11/13 11:22:22;;;;;;;9.70;8.32;;;;;;;15.04;97.88;101936.31;5060226;28;20533;-70